Latest Weather Observations for Blackall

IDQ60801

Issued at 3:22 pm EST Thursday 28 January 2021 (issued every 10 minutes, with the page automatically refreshed every 10 minutes)

About weather observations | Map of weather stations | Latest weather observations for QLD | Other Formats
Station Details ID: 036034 Name: BLACKALL AIRPORT Lat: -24.43 Lon: 145.43 Height: 281.3 m
Data from the previous 72 hours. | See also: Recent months at Blackall
Date/Time
EST
Temp
°C
App
Temp
°C
Dew
Point
°C
Rel
Hum
%
Delta-T
°C
Wind Press
QNH
hPa
Press
MSL
hPa
Rain since
9am
mm
Dir  Spd
km/h
Gust
km/h
Spd
kts
Gust
kts
28/03:00pm 38.4 35.7 12.9 22 15.8 ENE 19 30 10 16 1005.0 1002.9 0.0
28/02:30pm 37.9 35.1 13.2 23 15.3 E 20 35 11 19 1005.6 1003.5 0.0
28/02:00pm 36.9 34.0 13.0 24 14.8 ESE 20 39 11 21 1005.9 1003.8 0.0
28/01:30pm 38.0 35.2 12.6 22 15.6 ESE 19 30 10 16 1006.4 1004.3 0.0
28/01:00pm 35.9 34.5 13.4 26 13.9 S 13 22 7 12 1007.0 1004.8 0.0
28/12:30pm 35.8 34.2 13.9 27 13.6 E 15 26 8 14 1007.5 1005.3 0.0
28/12:00pm 34.9 33.0 14.2 28 12.9 NNE 17 32 9 17 1008.0 1005.8 0.0
28/11:30am 34.0 32.8 15.0 32 11.9 NE 15 26 8 14 1008.4 1006.3 0.0
28/11:00am 34.4 32.9 15.3 31 12.1 NE 17 26 9 14 1008.7 1006.6 0.0
28/10:30am 33.6 32.2 15.6 34 11.4 NE 17 26 9 14 1009.0 1006.9 0.0
28/10:00am 33.0 31.5 16.4 37 10.6 NNE 19 30 10 16 1009.2 1007.1 0.0
28/09:30am 31.5 30.0 16.3 40 9.6 NNE 19 30 10 16 1009.3 1007.2 0.0
28/09:00am 30.6 28.3 15.8 40 9.3 NNE 22 32 12 17 1009.4 1007.3 0.4
28/08:30am 29.9 27.6 16.7 45 8.4 NE 24 35 13 19 1009.5 1007.4 0.4
28/08:00am 29.1 26.0 16.6 46 7.9 NE 28 39 15 21 1009.4 1007.3 0.4
28/07:30am 28.4 27.0 17.0 50 7.2 NE 20 30 11 16 1009.2 1007.1 0.4
28/07:00am 27.4 26.1 16.7 52 6.7 NE 19 30 10 16 1009.0 1006.9 0.4
28/06:30am 26.7 26.5 16.6 54 6.3 NE 13 17 7 9 1008.6 1006.5 0.4
28/06:00am 26.3 25.2 16.3 54 6.2 NE 17 22 9 12 1008.3 1006.2 0.4
28/05:30am 26.7 24.9 16.0 52 6.6 NE 20 26 11 14 1007.9 1005.7 0.4
28/05:00am 26.7 25.5 16.0 52 6.7 NE 17 22 9 12 1007.4 1005.2 0.4
28/04:30am 26.5 25.5 15.5 50 6.8 ENE 15 20 8 11 1007.1 1004.9 0.4
28/04:00am 26.6 25.1 15.3 50 7.0 ENE 17 20 9 11 1006.3 1004.2 0.4
28/03:30am 27.2 26.6 15.6 49 7.2 ENE 13 17 7 9 1006.1 1004.0 0.4
28/03:00am 26.8 26.9 16.4 53 6.5 ENE 11 19 6 10 1005.9 1003.8 0.4
28/02:30am 26.2 26.6 16.4 54 6.1 E 9 13 5 7 1005.8 1003.7 0.4
28/02:00am 26.3 26.8 16.5 54 6.1 E 9 11 5 6 1005.9 1003.8 0.4
28/01:30am 26.5 27.1 16.7 55 6.1 E 9 11 5 6 1006.0 1003.9 0.4
28/01:00am 26.3 27.4 17.1 57 5.8 ESE 7 9 4 5 1006.3 1004.2 0.4
28/12:30am 27.7 28.6 16.6 50 7.0 E 7 11 4 6 1006.3 1004.2 0.4
28/12:00am 28.1 28.7 16.7 50 7.2 ENE 9 13 5 7 1006.4 1004.3 0.4
 
Date/Time
EST
Temp
°C
App
Temp
°C
Dew
Point
°C
Rel
Hum
%
Delta-T
°C
Wind Press
QNH
hPa
Press
MSL
hPa
Rain since
9am
mm
Dir  Spd
km/h
Gust
km/h
Spd
kts
Gust
kts
27/11:30pm 28.4 29.3 16.7 49 7.4 ENE 7 9 4 5 1006.5 1004.4 0.4
27/11:00pm 29.2 30.3 16.7 46 7.9 E 6 7 3 4 1006.6 1004.5 0.4
27/10:30pm 29.7 30.7 16.8 45 8.2 ENE 7 9 4 5 1006.4 1004.3 0.4
27/10:00pm 30.6 30.6 16.2 41 9.1 ENE 11 15 6 8 1006.4 1004.3 0.4
27/09:30pm 31.5 30.8 16.3 40 9.6 ENE 15 20 8 11 1006.3 1004.2 0.4
27/09:00pm 31.7 31.2 16.8 40 9.5 NE 15 26 8 14 1006.1 1004.0 0.4
27/08:30pm 31.6 32.3 17.1 41 9.3 NNE 9 11 5 6 1005.9 1003.8 0.4
27/08:00pm 32.5 32.9 17.2 40 9.9 NE 11 15 6 8 1005.6 1003.5 0.4
27/07:30pm 32.4 32.8 18.2 42 9.3 NE 13 17 7 9 1005.2 1003.1 0.4
27/07:00pm 30.1 35.5 23.3 67 4.7 CALM 0 0 0 0 1005.0 1002.9 0.4
27/06:30pm 30.4 35.0 23.1 65 5.1 SE 4 7 2 4 1004.8 1002.6 0.4
27/06:00pm 29.6 34.4 23.5 69 4.3 NNW 4 7 2 4 1004.9 1002.8 0.4
27/05:37pm 29.7 29.1 18.5 51 7.3 ESE 19 28 10 15 1005.1 1003.0 0.2
27/05:30pm 35.7 33.5 15.9 30 12.6 NE 22 30 12 16 1004.8 1002.6 0.0
27/05:00pm 37.2 35.1 16.2 29 13.6 NNE 22 30 12 16 1004.0 1001.8 0.0
27/04:30pm 36.9 35.8 14.2 25 14.2 NE 13 22 7 12 1004.0 1001.8 0.0
27/04:00pm 37.7 36.6 14.3 25 14.8 E 13 20 7 11 1004.1 1001.9 0.0
27/03:30pm 37.0 35.9 14.3 26 14.2 E 13 19 7 10 1004.3 1002.1 0.0
27/03:00pm 37.4 37.5 14.0 24 14.7 ESE 6 13 3 7 1004.5 1002.3 0.0
27/02:30pm 37.6 37.8 14.8 25 14.4 N 7 11 4 6 1004.7 1002.5 0.0
27/02:00pm 37.7 36.2 14.3 25 14.8 NE 15 26 8 14 1005.1 1003.0 0.0
27/01:30pm 36.7 35.7 14.6 26 13.9 NNE 13 26 7 14 1005.4 1003.3 0.0
27/01:00pm 37.7 37.4 15.5 27 14.2 ENE 11 22 6 12 1005.8 1003.7 0.0
27/12:30pm 37.0 36.3 15.5 28 13.7 ENE 13 20 7 11 1006.3 1004.2 0.0
27/12:00pm 36.3 36.9 15.4 28 13.3 E 6 19 3 10 1006.8 1004.6 0.0
27/11:30am 35.5 34.2 15.8 31 12.6 N 17 24 9 13 1007.2 1005.0 0.0
27/11:00am 35.2 34.9 16.5 33 12.0 N 13 20 7 11 1007.6 1005.4 0.0
27/10:30am 34.6 34.3 17.3 35 11.2 N 15 26 8 14 1007.7 1005.5 0.0
27/10:00am 33.2 32.0 17.4 39 10.2 N 20 28 11 15 1007.7 1005.5 0.0
27/09:30am 32.6 31.8 18.0 41 9.5 N 19 30 10 16 1007.8 1005.6 0.0
27/09:00am 31.7 31.0 18.7 46 8.5 N 20 28 11 15 1007.8 1005.6 0.0
27/08:30am 30.3 29.5 18.4 49 7.7 N 20 26 11 14 1007.7 1005.5 0.0
27/08:00am 29.6 28.7 18.1 50 7.4 NNE 20 28 11 15 1007.7 1005.5 0.0
27/07:30am 29.1 28.3 17.9 50 7.2 NNE 19 26 10 14 1007.5 1005.3 0.0
27/07:00am 28.1 27.0 17.3 52 6.9 NNE 19 28 10 15 1007.1 1004.9 0.0
27/06:30am 27.7 26.8 16.9 51 6.8 NE 17 22 9 12 1006.5 1004.4 0.0
27/06:00am 26.8 26.1 16.4 53 6.5 NE 15 19 8 10 1006.1 1004.0 0.0
27/05:30am 26.0 25.5 14.8 50 6.8 NE 11 15 6 8 1005.8 1003.7 0.0
27/05:00am 25.8 24.7 14.3 49 6.9 ENE 13 15 7 8 1005.4 1003.3 0.0
27/04:30am 25.8 25.2 14.6 50 6.8 NE 11 13 6 7 1004.9 1002.8 0.0
27/04:00am 25.6 25.3 14.4 50 6.8 ENE 9 9 5 5 1004.6 1002.4 0.0
27/03:30am 26.1 25.6 13.9 47 7.3 ENE 9 11 5 6 1004.2 1002.0 0.0
27/03:00am 26.5 26.2 14.3 47 7.4 NE 9 11 5 6 1004.3 1002.1 0.0
27/02:30am 26.4 26.0 14.2 47 7.4 NE 9 11 5 6 1004.2 1002.0 0.0
27/02:00am 27.0 26.1 13.7 44 8.0 NE 11 13 6 7 1004.3 1002.1 0.0
27/01:30am 26.9 26.7 13.6 44 8.0 ENE 7 9 4 5 1004.4 1002.2 0.0
27/01:00am 27.7 27.4 13.3 41 8.6 NNE 7 9 4 5 1004.7 1002.5 0.0
27/12:30am 28.3 27.5 13.0 39 9.1 NNE 9 13 5 7 1004.8 1002.6 0.0
27/12:00am 28.5 27.4 13.2 39 9.2 NNE 11 13 6 7 1004.9 1002.8 0.0
 
Date/Time
EST
Temp
°C
App
Temp
°C
Dew
Point
°C
Rel
Hum
%
Delta-T
°C
Wind Press
QNH
hPa
Press
MSL
hPa
Rain since
9am
mm
Dir  Spd
km/h
Gust
km/h
Spd
kts
Gust
kts
26/11:30pm 28.9 27.8 13.2 38 9.4 NNE 11 13 6 7 1005.2 1003.1 0.0
26/11:00pm 29.4 28.7 13.2 37 9.8 NNE 9 13 5 7 1005.3 1003.2 0.0
26/10:30pm 30.0 29.3 13.3 36 10.1 NNE 9 13 5 7 1005.3 1003.2 0.0
26/10:00pm 30.5 29.8 13.3 35 10.4 NNE 9 13 5 7 1005.1 1003.0 0.0
26/09:30pm 31.2 29.7 13.0 33 11.0 NNE 13 17 7 9 1004.7 1002.5 0.0
26/09:00pm 31.4 30.5 12.7 32 11.3 NNE 9 13 5 7 1004.3 1002.1 0.0
26/08:30pm 31.9 30.9 12.2 30 11.8 NNE 9 13 5 7 1004.0 1001.8 0.0
26/08:00pm 32.7 31.6 11.8 28 12.5 NE 9 13 5 7 1003.7 1001.5 0.0
26/07:30pm 33.8 33.2 12.2 27 13.0 ENE 7 9 4 5 1003.4 1001.2 0.0
26/07:00pm 35.1 33.5 11.5 24 14.2 ENE 11 19 6 10 1003.2 1001.0 0.0
26/06:30pm 36.1 34.2 11.7 23 14.7 NE 13 19 7 10 1002.7 1000.6 0.0
26/06:00pm 36.8 35.4 10.9 21 15.5 SSE 9 19 5 10 1002.3 1000.2 0.0
26/05:30pm 37.3 35.2 11.3 21 15.6 ENE 13 22 7 12 1002.2 1000.1 0.0
26/05:00pm 37.7 35.5 10.9 20 16.1 NE 13 22 7 12 1002.2 1000.1 0.0
26/04:30pm 37.8 35.7 11.0 20 16.1 NE 13 19 7 10 1002.2 1000.1 0.0
26/04:00pm 37.0 35.7 11.1 21 15.6 NE 9 19 5 10 1002.5 1000.4 0.0
26/03:30pm 37.5 34.7 11.5 21 15.7 NNE 17 26 9 14 1002.8 1000.7 0.0
26/03:00pm 36.4 36.1 13.2 25 14.3 NNW 7 19 4 10 1003.2 1001.0 0.0
26/02:30pm 36.6 35.8 12.8 24 14.6 NW 9 11 5 6 1003.5 1001.3 0.0
26/02:00pm 37.1 36.4 13.2 24 14.8 NW 9 17 5 9 1003.9 1001.7 0.0
26/01:30pm 36.1 35.2 13.6 26 13.9 E 11 26 6 14 1004.3 1002.1 0.0
26/01:00pm 35.0 33.4 13.8 28 13.2 NNE 15 30 8 16 1004.8 1002.6 0.0
26/12:30pm 35.5 33.4 14.7 28 13.1 N 19 28 10 15 1005.4 1003.3 0.0
26/12:00pm 34.6 32.6 15.5 32 12.1 N 20 32 11 17 1006.1 1004.0 0.0
26/11:30am 34.4 32.5 15.8 33 11.8 N 20 30 11 16 1006.6 1004.5 0.0
26/11:00am 34.1 32.5 16.0 34 11.5 N 19 28 10 15 1007.3 1005.1 0.0
26/10:30am 33.1 31.7 16.9 38 10.4 NNE 20 32 11 17 1007.5 1005.3 0.0
26/10:00am 32.0 30.4 17.5 42 9.4 N 22 35 12 19 1008.0 1005.8 0.0
26/09:30am 31.3 29.5 17.9 44 8.7 N 24 33 13 18 1007.8 1005.6 0.0
26/09:00am 29.9 28.5 18.7 51 7.3 NNE 24 35 13 19 1007.8 1005.6 0.0
26/08:30am 29.6 28.5 18.7 52 7.1 NNE 22 30 12 16 1007.8 1005.6 0.0
26/08:00am 28.1 26.6 18.5 56 6.2 NNE 24 33 13 18 1007.6 1005.4 0.0
26/07:30am 27.5 26.7 18.5 58 5.8 NNE 20 30 11 16 1007.5 1005.3 0.0
26/07:00am 26.4 25.5 18.3 61 5.2 NNE 20 30 11 16 1007.1 1004.9 0.0
26/06:30am 25.8 25.0 18.0 62 5.0 NNE 19 28 10 15 1006.5 1004.4 0.0
26/06:00am 25.4 24.9 17.8 62 4.8 NNE 17 24 9 13 1006.3 1004.2 0.0
26/05:30am 25.7 24.6 17.4 60 5.2 NNE 19 30 10 16 1005.7 1003.6 0.0
26/05:00am 25.6 24.6 16.5 57 5.7 NE 17 20 9 11 1005.4 1003.3 0.0
26/04:30am 25.9 24.9 15.6 53 6.3 NE 15 22 8 12 1005.1 1003.0 0.0
26/04:00am 25.8 25.3 14.9 51 6.6 NE 11 17 6 9 1004.8 1002.6 0.0
26/03:30am 25.6 24.6 14.7 51 6.6 NNE 13 17 7 9 1004.8 1002.6 0.0
26/03:00am 24.5 24.2 13.4 50 6.6 NNE 7 9 4 5 1004.7 1002.5 0.0
26/02:30am 25.2 25.0 13.7 49 6.8 NE 7 9 4 5 1005.0 1002.9 0.0
26/02:00am 25.5 25.0 13.7 48 7.0 NNE 9 13 5 7 1005.2 1003.1 0.0
26/01:30am 25.4 25.1 13.3 47 7.2 NNE 7 9 4 5 1005.6 1003.5 0.0
26/01:00am 25.9 25.2 13.1 45 7.6 NNE 9 11 5 6 1005.8 1003.7 0.0
26/12:30am 26.5 25.3 12.9 43 8.0 NNE 11 13 6 7 1006.1 1004.0 0.0
26/12:00am 26.7 25.6 12.0 40 8.6 NNE 9 13 5 7 1006.5 1004.4 0.0
 
Date/Time
EST
Temp
°C
App
Temp
°C
Dew
Point
°C
Rel
Hum
%
Delta-T
°C
Wind Press
QNH
hPa
Press
MSL
hPa
Rain since
9am
mm
Dir  Spd
km/h
Gust
km/h
Spd
kts
Gust
kts
25/11:30pm 27.6 26.0 11.6 37 9.3 NNE 11 13 6 7 1006.6 1004.5 0.0
25/11:00pm 27.0 26.1 11.5 38 9.0 N 7 13 4 7 1006.8 1004.6 0.0
25/10:30pm 27.2 25.9 11.3 37 9.2 NNE 9 11 5 6 1006.8 1004.6 0.0
25/10:00pm 28.1 26.8 11.2 35 9.8 NNE 9 11 5 6 1006.6 1004.5 0.0
25/09:30pm 29.2 27.1 11.3 33 10.4 NE 13 15 7 8 1006.4 1004.3 0.0
25/09:00pm 28.6 27.2 10.8 33 10.3 NE 9 11 5 6 1006.3 1004.2 0.0
25/08:30pm 29.9 28.1 10.9 31 11.0 NE 11 13 6 7 1006.0 1003.9 0.0
25/08:00pm 30.9 29.1 10.8 29 11.7 NE 11 15 6 8 1005.8 1003.7 0.0
25/07:30pm 31.7 29.9 11.0 28 12.1 NE 11 15 6 8 1005.6 1003.5 0.0
25/07:00pm 32.9 30.7 10.9 26 13.0 NE 13 19 7 10 1005.3 1003.2 0.0
25/06:30pm 34.2 31.8 10.1 23 14.1 NE 13 20 7 11 1005.1 1003.0 0.0
25/06:00pm 35.3 33.2 9.7 21 15.0 ENE 11 24 6 13 1004.9 1002.8 0.0
25/05:30pm 35.4 33.7 8.3 19 15.5 E 7 11 4 6 1004.8 1002.6 0.0
25/05:00pm 35.4 32.5 8.3 19 15.5 NNE 13 19 7 10 1004.7 1002.5 0.0
25/04:30pm 36.9 34.3 9.5 19 16.0 E 13 28 7 15 1004.7 1002.5 0.0
25/04:00pm 35.8 34.0 9.3 20 15.4 NNE 9 15 5 8 1005.1 1003.0 0.0
25/03:30pm 35.3 32.0 8.2 19 15.4 E 15 20 8 11 1005.3 1003.2 0.0

Other formats

Comma delimited format used in spreadsheet applications
http://www.bom.gov.au/fwo/IDQ60801/IDQ60801.95351.axf

JavaScript Object Notation format (JSON) in row-major order
http://www.bom.gov.au/fwo/IDQ60801/IDQ60801.95351.json

Data quality

Most of these data are generated automatically and are frequently updated. Quality checks on data are not normally performed. It is possible for incorrect values to appear. Refer to information at About Latest Weather Observations and please check the disclaimer before using these data.